sensor_id;sensor_type;location;lat;lon;timestamp;pressure;altitude;pressure_sealevel;temperature;humidity
7309;BME280;3695;53.330;9.876;2023-02-20T00:01:31;103868.53;;;5.28;100.00
7309;BME280;3695;53.330;9.876;2023-02-20T00:03:58;103870.25;;;5.29;100.00
7309;BME280;3695;53.330;9.876;2023-02-20T00:06:26;103885.19;;;5.33;100.00
7309;BME280;3695;53.330;9.876;2023-02-20T00:08:52;103882.94;;;5.27;100.00
7309;BME280;3695;53.330;9.876;2023-02-20T00:11:19;103879.94;;;5.31;100.00
7309;BME280;3695;53.330;9.876;2023-02-20T00:13:46;103876.72;;;5.26;100.00
7309;BME280;3695;53.330;9.876;2023-02-20T00:16:13;103876.16;;;5.34;100.00
7309;BME280;3695;53.330;9.876;2023-02-20T00:18:40;103866.38;;;5.33;100.00
7309;BME280;3695;53.330;9.876;2023-02-20T00:21:06;103873.25;;;5.37;100.00
7309;BME280;3695;53.330;9.876;2023-02-20T00:23:34;103872.81;;;5.43;100.00
7309;BME280;3695;53.330;9.876;2023-02-20T00:26:01;103853.34;;;5.40;100.00
7309;BME280;3695;53.330;9.876;2023-02-20T00:28:27;103867.88;;;5.37;100.00
7309;BME280;3695;53.330;9.876;2023-02-20T00:30:54;103861.84;;;5.33;100.00
7309;BME280;3695;53.330;9.876;2023-02-20T00:33:20;103864.44;;;5.35;100.00
7309;BME280;3695;53.330;9.876;2023-02-20T00:35:47;103879.59;;;5.36;100.00
7309;BME280;3695;53.330;9.876;2023-02-20T00:38:14;103881.31;;;5.37;100.00
7309;BME280;3695;53.330;9.876;2023-02-20T00:40:42;103894.78;;;5.37;100.00
7309;BME280;3695;53.330;9.876;2023-02-20T00:43:08;103906.06;;;5.42;100.00
7309;BME280;3695;53.330;9.876;2023-02-20T00:45:34;103897.78;;;5.45;100.00
7309;BME280;3695;53.330;9.876;2023-02-20T00:48:01;103871.31;;;5.39;100.00
7309;BME280;3695;53.330;9.876;2023-02-20T00:50:27;103864.84;;;5.42;100.00
7309;BME280;3695;53.330;9.876;2023-02-20T00:52:54;103857.31;;;5.47;100.00
7309;BME280;3695;53.330;9.876;2023-02-20T00:55:20;103853.88;;;5.45;100.00
7309;BME280;3695;53.330;9.876;2023-02-20T00:57:48;103847.41;;;5.47;100.00
7309;BME280;3695;53.330;9.876;2023-02-20T01:00:18;103835.03;;;5.45;100.00
7309;BME280;3695;53.330;9.876;2023-02-20T01:02:45;103836.22;;;5.53;100.00
7309;BME280;3695;53.330;9.876;2023-02-20T01:05:12;103826.63;;;5.49;100.00
7309;BME280;3695;53.330;9.876;2023-02-20T01:07:39;103813.19;;;5.49;100.00
7309;BME280;3695;53.330;9.876;2023-02-20T01:10:06;103805.19;;;5.60;100.00
7309;BME280;3695;53.330;9.876;2023-02-20T01:12:32;103773.59;;;5.51;100.00
7309;BME280;3695;53.330;9.876;2023-02-20T01:15:00;103784.22;;;5.53;100.00
7309;BME280;3695;53.330;9.876;2023-02-20T01:17:27;103790.59;;;5.52;100.00
7309;BME280;3695;53.330;9.876;2023-02-20T01:19:53;103780.50;;;5.43;100.00
7309;BME280;3695;53.330;9.876;2023-02-20T01:22:20;103799.75;;;5.49;100.00
7309;BME280;3695;53.330;9.876;2023-02-20T01:24:46;103786.19;;;5.51;100.00
7309;BME280;3695;53.330;9.876;2023-02-20T01:27:13;103777.47;;;5.47;100.00
7309;BME280;3695;53.330;9.876;2023-02-20T01:29:39;103767.97;;;5.54;100.00
7309;BME280;3695;53.330;9.876;2023-02-20T01:32:10;103768.13;;;5.40;100.00
7309;BME280;3695;53.330;9.876;2023-02-20T01:34:37;103775.13;;;5.43;100.00
7309;BME280;3695;53.330;9.876;2023-02-20T01:37:03;103781.66;;;5.51;100.00
7309;BME280;3695;53.330;9.876;2023-02-20T01:39:30;103762.19;;;5.48;100.00
7309;BME280;3695;53.330;9.876;2023-02-20T01:41:59;103765.41;;;5.53;100.00
7309;BME280;3695;53.330;9.876;2023-02-20T01:44:28;103744.56;;;5.44;100.00
7309;BME280;3695;53.330;9.876;2023-02-20T01:46:55;103757.22;;;5.54;100.00
7309;BME280;3695;53.330;9.876;2023-02-20T01:49:27;103760.41;;;5.59;100.00
7309;BME280;3695;53.330;9.876;2023-02-20T01:51:59;103752.34;;;5.59;100.00
7309;BME280;3695;53.330;9.876;2023-02-20T01:54:29;103733.75;;;5.56;100.00
7309;BME280;3695;53.330;9.876;2023-02-20T01:56:57;103708.56;;;5.57;100.00
7309;BME280;3695;53.330;9.876;2023-02-20T01:59:29;103695.84;;;5.59;100.00
7309;BME280;3695;53.330;9.876;2023-02-20T02:01:56;103688.06;;;5.67;100.00
7309;BME280;3695;53.330;9.876;2023-02-20T02:04:24;103670.66;;;5.60;100.00
7309;BME280;3695;53.330;9.876;2023-02-20T02:06:52;103652.56;;;5.62;100.00
7309;BME280;3695;53.330;9.876;2023-02-20T02:09:25;103635.13;;;5.68;100.00
7309;BME280;3695;53.330;9.876;2023-02-20T02:11:54;103627.50;;;5.62;100.00
7309;BME280;3695;53.330;9.876;2023-02-20T02:14:21;103611.66;;;5.70;100.00
7309;BME280;3695;53.330;9.876;2023-02-20T02:16:57;103605.41;;;5.69;100.00
7309;BME280;3695;53.330;9.876;2023-02-20T02:19:49;103602.88;;;5.79;100.00
7309;BME280;3695;53.330;9.876;2023-02-20T02:22:37;103587.53;;;5.68;100.00
7309;BME280;3695;53.330;9.876;2023-02-20T02:25:24;103604.06;;;5.75;100.00
7309;BME280;3695;53.330;9.876;2023-02-20T02:31:37;103574.13;;;5.80;100.00
7309;BME280;3695;53.330;9.876;2023-02-20T02:34:25;103562.88;;;5.86;100.00
7309;BME280;3695;53.330;9.876;2023-02-20T02:37:10;103554.41;;;5.79;100.00
7309;BME280;3695;53.330;9.876;2023-02-20T02:39:48;103570.63;;;5.90;100.00
7309;BME280;3695;53.330;9.876;2023-02-20T02:42:22;103558.13;;;5.89;100.00
7309;BME280;3695;53.330;9.876;2023-02-20T02:44:55;103563.41;;;5.91;100.00
7309;BME280;3695;53.330;9.876;2023-02-20T02:47:26;103562.88;;;5.86;100.00
7309;BME280;3695;53.330;9.876;2023-02-20T02:49:59;103555.31;;;5.91;100.00
7309;BME280;3695;53.330;9.876;2023-02-20T02:52:29;103558.13;;;5.89;100.00
7309;BME280;3695;53.330;9.876;2023-02-20T02:55:14;103558.28;;;5.99;100.00
7309;BME280;3695;53.330;9.876;2023-02-20T02:57:41;103557.03;;;5.92;100.00
7309;BME280;3695;53.330;9.876;2023-02-20T03:00:10;103559.75;;;6.03;100.00
7309;BME280;3695;53.330;9.876;2023-02-20T03:02:42;103562.06;;;6.08;100.00
7309;BME280;3695;53.330;9.876;2023-02-20T03:05:13;103557.78;;;6.05;100.00
7309;BME280;3695;53.330;9.876;2023-02-20T03:07:44;103565.50;;;6.10;100.00
7309;BME280;3695;53.330;9.876;2023-02-20T03:10:17;103559.50;;;6.06;100.00
7309;BME280;3695;53.330;9.876;2023-02-20T03:12:48;103580.91;;;6.08;100.00
7309;BME280;3695;53.330;9.876;2023-02-20T03:15:21;103586.66;;;6.03;100.00
7309;BME280;3695;53.330;9.876;2023-02-20T03:18:11;103583.72;;;6.06;100.00
7309;BME280;3695;53.330;9.876;2023-02-20T03:20:45;103611.03;;;6.13;100.00
7309;BME280;3695;53.330;9.876;2023-02-20T03:23:17;103614.59;;;6.13;100.00
7309;BME280;3695;53.330;9.876;2023-02-20T03:25:49;103624.63;;;6.11;100.00
7309;BME280;3695;53.330;9.876;2023-02-20T03:28:22;103614.59;;;6.13;100.00
7309;BME280;3695;53.330;9.876;2023-02-20T03:30:53;103601.66;;;6.18;100.00
7309;BME280;3695;53.330;9.876;2023-02-20T03:33:24;103599.69;;;6.20;100.00
7309;BME280;3695;53.330;9.876;2023-02-20T03:36:13;103607.03;;;6.18;100.00
7309;BME280;3695;53.330;9.876;2023-02-20T03:39:02;103601.88;;;6.15;100.00
7309;BME280;3695;53.330;9.876;2023-02-20T03:41:48;103601.41;;;6.21;100.00
7309;BME280;3695;53.330;9.876;2023-02-20T03:44:33;103584.38;;;6.21;100.00
7309;BME280;3695;53.330;9.876;2023-02-20T03:47:01;103582.66;;;6.20;100.00
7309;BME280;3695;53.330;9.876;2023-02-20T03:49:32;103565.41;;;6.22;100.00
7309;BME280;3695;53.330;9.876;2023-02-20T03:52:00;103539.44;;;6.32;100.00
7309;BME280;3695;53.330;9.876;2023-02-20T03:54:29;103528.56;;;6.34;100.00
7309;BME280;3695;53.330;9.876;2023-02-20T03:57:01;103504.94;;;6.26;100.00
7309;BME280;3695;53.330;9.876;2023-02-20T03:59:32;103498.91;;;6.45;100.00
7309;BME280;3695;53.330;9.876;2023-02-20T04:02:04;103512.00;;;6.39;100.00
7309;BME280;3695;53.330;9.876;2023-02-20T04:04:37;103491.94;;;6.43;100.00
7309;BME280;3695;53.330;9.876;2023-02-20T04:07:09;103489.22;;;6.43;100.00
7309;BME280;3695;53.330;9.876;2023-02-20T04:09:41;103484.59;;;6.34;100.00
7309;BME280;3695;53.330;9.876;2023-02-20T04:12:13;103511.03;;;6.40;100.00
7309;BME280;3695;53.330;9.876;2023-02-20T04:14:42;103503.94;;;6.39;100.00
7309;BME280;3695;53.330;9.876;2023-02-20T04:17:13;103494.50;;;6.33;100.00
7309;BME280;3695;53.330;9.876;2023-02-20T04:19:41;103496.34;;;6.32;100.00
7309;BME280;3695;53.330;9.876;2023-02-20T04:22:10;103496.59;;;6.29;100.00
7309;BME280;3695;53.330;9.876;2023-02-20T04:24:42;103508.97;;;6.32;100.00
7309;BME280;3695;53.330;9.876;2023-02-20T04:27:11;103489.00;;;6.35;100.00
7309;BME280;3695;53.330;9.876;2023-02-20T04:29:37;103492.94;;;6.30;100.00
7309;BME280;3695;53.330;9.876;2023-02-20T04:32:04;103484.34;;;6.37;100.00
7309;BME280;3695;53.330;9.876;2023-02-20T04:34:31;103496.34;;;6.32;100.00
7309;BME280;3695;53.330;9.876;2023-02-20T04:37:04;103516.56;;;6.27;100.00
7309;BME280;3695;53.330;9.876;2023-02-20T04:39:32;103524.88;;;6.24;100.00
7309;BME280;3695;53.330;9.876;2023-02-20T04:41:59;103555.25;;;6.26;100.00
7309;BME280;3695;53.330;9.876;2023-02-20T04:44:26;103554.03;;;6.19;100.00
7309;BME280;3695;53.330;9.876;2023-02-20T04:47:00;103548.16;;;6.25;100.00
7309;BME280;3695;53.330;9.876;2023-02-20T04:49:27;103570.19;;;6.19;100.00
7309;BME280;3695;53.330;9.876;2023-02-20T04:51:54;103572.75;;;6.20;100.00
7309;BME280;3695;53.330;9.876;2023-02-20T04:54:20;103572.75;;;6.20;100.00
7309;BME280;3695;53.330;9.876;2023-02-20T04:56:47;103582.91;;;6.17;100.00
7309;BME280;3695;53.330;9.876;2023-02-20T04:59:15;103588.91;;;6.20;100.00
7309;BME280;3695;53.330;9.876;2023-02-20T05:01:42;103563.69;;;6.21;100.00
7309;BME280;3695;53.330;9.876;2023-02-20T05:04:12;103551.66;;;6.14;100.00
7309;BME280;3695;53.330;9.876;2023-02-20T05:06:40;103575.91;;;6.14;100.00
7309;BME280;3695;53.330;9.876;2023-02-20T05:09:07;103598.66;;;6.10;100.00
7309;BME280;3695;53.330;9.876;2023-02-20T05:11:35;103609.00;;;6.16;100.00
7309;BME280;3695;53.330;9.876;2023-02-20T05:14:01;103620.81;;;6.14;100.00
7309;BME280;3695;53.330;9.876;2023-02-20T05:16:29;103643.03;;;6.17;100.00
7309;BME280;3695;53.330;9.876;2023-02-20T05:18:56;103658.94;;;6.20;100.00
7309;BME280;3695;53.330;9.876;2023-02-20T05:21:24;103675.59;;;6.25;100.00
7309;BME280;3695;53.330;9.876;2023-02-20T05:24:08;103674.59;;;6.15;100.00
7309;BME280;3695;53.330;9.876;2023-02-20T05:26:35;103685.13;;;6.18;100.00
7309;BME280;3695;53.330;9.876;2023-02-20T05:29:01;103700.44;;;6.18;100.00
7309;BME280;3695;53.330;9.876;2023-02-20T05:31:29;103707.41;;;6.20;100.00
7309;BME280;3695;53.330;9.876;2023-02-20T05:33:56;103713.78;;;6.19;100.00
7309;BME280;3695;53.330;9.876;2023-02-20T05:36:22;103711.31;;;6.16;100.00
7309;BME280;3695;53.330;9.876;2023-02-20T05:38:49;103711.72;;;6.23;100.00
7309;BME280;3695;53.330;9.876;2023-02-20T05:41:15;103722.47;;;6.23;100.00
7309;BME280;3695;53.330;9.876;2023-02-20T05:43:42;103722.00;;;6.29;100.00
7309;BME280;3695;53.330;9.876;2023-02-20T05:46:08;103730.19;;;6.27;100.00
7309;BME280;3695;53.330;9.876;2023-02-20T05:48:36;103721.75;;;6.32;100.00
7309;BME280;3695;53.330;9.876;2023-02-20T05:51:03;103703.88;;;6.31;100.00
7309;BME280;3695;53.330;9.876;2023-02-20T05:53:29;103718.44;;;6.28;100.00
7309;BME280;3695;53.330;9.876;2023-02-20T05:55:56;103700.22;;;6.32;100.00
7309;BME280;3695;53.330;9.876;2023-02-20T05:58:23;103703.28;;;6.27;100.00
7309;BME280;3695;53.330;9.876;2023-02-20T06:00:50;103693.72;;;6.35;100.00
7309;BME280;3695;53.330;9.876;2023-02-20T06:03:17;103699.25;;;6.33;100.00
7309;BME280;3695;53.330;9.876;2023-02-20T06:05:45;103689.56;;;6.30;100.00
7309;BME280;3695;53.330;9.876;2023-02-20T06:08:11;103711.38;;;6.39;100.00
7309;BME280;3695;53.330;9.876;2023-02-20T06:10:37;103710.50;;;6.38;100.00
7309;BME280;3695;53.330;9.876;2023-02-20T06:13:04;103712.84;;;6.43;100.00
7309;BME280;3695;53.330;9.876;2023-02-20T06:15:30;103719.94;;;6.44;100.00
7309;BME280;3695;53.330;9.876;2023-02-20T06:17:57;103721.66;;;6.45;100.00
7309;BME280;3695;53.330;9.876;2023-02-20T06:20:23;103730.00;;;6.53;100.00
7309;BME280;3695;53.330;9.876;2023-02-20T06:22:51;103732.69;;;6.53;100.00
7309;BME280;3695;53.330;9.876;2023-02-20T06:25:17;103735.41;;;6.53;100.00
7309;BME280;3695;53.330;9.876;2023-02-20T06:27:44;103728.28;;;6.52;100.00
7309;BME280;3695;53.330;9.876;2023-02-20T06:30:11;103741.75;;;6.52;100.00
7309;BME280;3695;53.330;9.876;2023-02-20T06:32:37;103746.19;;;6.53;100.00
7309;BME280;3695;53.330;9.876;2023-02-20T06:35:05;103755.63;;;6.58;100.00
7309;BME280;3695;53.330;9.876;2023-02-20T06:37:31;103759.28;;;6.57;100.00
7309;BME280;3695;53.330;9.876;2023-02-20T06:39:59;103766.88;;;6.52;100.00
7309;BME280;3695;53.330;9.876;2023-02-20T06:42:25;103775.47;;;6.57;100.00
7309;BME280;3695;53.330;9.876;2023-02-20T06:44:52;103770.75;;;6.72;100.00
7309;BME280;3695;53.330;9.876;2023-02-20T06:47:18;103759.97;;;6.72;100.00
7309;BME280;3695;53.330;9.876;2023-02-20T06:49:45;103764.50;;;6.72;100.00
7309;BME280;3695;53.330;9.876;2023-02-20T06:52:11;103782.63;;;6.81;100.00
7309;BME280;3695;53.330;9.876;2023-02-20T06:54:38;103770.00;;;6.81;100.00
7309;BME280;3695;53.330;9.876;2023-02-20T06:57:06;103750.03;;;6.84;100.00
7309;BME280;3695;53.330;9.876;2023-02-20T06:59:33;103743.06;;;6.81;100.00
7309;BME280;3695;53.330;9.876;2023-02-20T07:02:04;103732.75;;;6.86;100.00
7309;BME280;3695;53.330;9.876;2023-02-20T07:04:30;103729.19;;;6.86;100.00
7309;BME280;3695;53.330;9.876;2023-02-20T07:06:56;103711.91;;;6.88;100.00
7309;BME280;3695;53.330;9.876;2023-02-20T07:09:23;103712.91;;;6.87;100.00
7309;BME280;3695;53.330;9.876;2023-02-20T07:11:51;103705.91;;;6.85;100.00
7309;BME280;3695;53.330;9.876;2023-02-20T07:14:20;103704.56;;;6.90;100.00
7309;BME280;3695;53.330;9.876;2023-02-20T07:16:46;103684.09;;;6.88;100.00
7309;BME280;3695;53.330;9.876;2023-02-20T07:19:13;103697.94;;;6.83;100.00
7309;BME280;3695;53.330;9.876;2023-02-20T07:21:39;103697.69;;;6.98;100.00
7309;BME280;3695;53.330;9.876;2023-02-20T07:24:06;103691.84;;;6.81;100.00
7309;BME280;3695;53.330;9.876;2023-02-20T07:26:33;103702.47;;;6.94;100.00
7309;BME280;3695;53.330;9.876;2023-02-20T07:29:01;103690.34;;;6.88;100.00
7309;BME280;3695;53.330;9.876;2023-02-20T07:31:29;103693.78;;;6.90;100.00
7309;BME280;3695;53.330;9.876;2023-02-20T07:33:56;103723.94;;;6.84;100.00
7309;BME280;3695;53.330;9.876;2023-02-20T07:36:23;103732.75;;;6.86;100.00
7309;BME280;3695;53.330;9.876;2023-02-20T07:38:53;103754.69;;;6.93;100.00
7309;BME280;3695;53.330;9.876;2023-02-20T07:41:20;103764.88;;;6.89;100.00
7309;BME280;3695;53.330;9.876;2023-02-20T07:43:47;103778.34;;;6.89;100.00
7309;BME280;3695;53.330;9.876;2023-02-20T07:46:13;103800.66;;;6.91;100.00
7309;BME280;3695;53.330;9.876;2023-02-20T07:48:41;103815.75;;;6.94;100.00
7309;BME280;3695;53.330;9.876;2023-02-20T07:51:07;103847.84;;;6.97;100.00
7309;BME280;3695;53.330;9.876;2023-02-20T07:53:34;103860.97;;;7.02;100.00
7309;BME280;3695;53.330;9.876;2023-02-20T07:56:05;103877.63;;;6.95;100.00
7309;BME280;3695;53.330;9.876;2023-02-20T07:58:32;103892.59;;;7.00;100.00
7309;BME280;3695;53.330;9.876;2023-02-20T08:01:02;103910.75;;;6.98;100.00
7309;BME280;3695;53.330;9.876;2023-02-20T08:03:29;103924.97;;;7.00;100.00
7309;BME280;3695;53.330;9.876;2023-02-20T08:05:57;103922.03;;;7.03;100.00
7309;BME280;3695;53.330;9.876;2023-02-20T08:08:23;103946.31;;;7.03;100.00
7309;BME280;3695;53.330;9.876;2023-02-20T08:10:50;103961.59;;;6.91;100.00
7309;BME280;3695;53.330;9.876;2023-02-20T08:13:16;104006.63;;;7.02;100.00
7309;BME280;3695;53.330;9.876;2023-02-20T08:15:43;104028.53;;;6.97;100.00
7309;BME280;3695;53.330;9.876;2023-02-20T08:18:10;104071.13;;;7.05;100.00
7309;BME280;3695;53.330;9.876;2023-02-20T08:20:36;104134.56;;;7.10;100.00
7309;BME280;3695;53.330;9.876;2023-02-20T08:23:04;104168.22;;;7.05;100.00
7309;BME280;3695;53.330;9.876;2023-02-20T08:25:31;104190.03;;;7.02;100.00
7309;BME280;3695;53.330;9.876;2023-02-20T08:27:57;104262.28;;;7.09;100.00
7309;BME280;3695;53.330;9.876;2023-02-20T08:30:28;104302.69;;;7.11;100.00
7309;BME280;3695;53.330;9.876;2023-02-20T08:32:54;104342.78;;;7.03;100.00
7309;BME280;3695;53.330;9.876;2023-02-20T08:35:21;104391.13;;;7.06;100.00
7309;BME280;3695;53.330;9.876;2023-02-20T08:37:48;104458.34;;;7.09;100.00
7309;BME280;3695;53.330;9.876;2023-02-20T08:40:16;104512.69;;;7.17;100.00
7309;BME280;3695;53.330;9.876;2023-02-20T08:42:43;104538.53;;;7.07;100.00
7309;BME280;3695;53.330;9.876;2023-02-20T08:45:10;104614.66;;;7.12;100.00
7309;BME280;3695;53.330;9.876;2023-02-20T08:47:36;104687.50;;;7.12;100.00
7309;BME280;3695;53.330;9.876;2023-02-20T08:50:03;104771.72;;;7.17;100.00
7309;BME280;3695;53.330;9.876;2023-02-20T08:52:30;104846.97;;;7.21;100.00
7309;BME280;3695;53.330;9.876;2023-02-20T08:54:56;104889.28;;;7.21;100.00
7309;BME280;3695;53.330;9.876;2023-02-20T08:57:24;104955.69;;;7.23;100.00
7309;BME280;3695;53.330;9.876;2023-02-20T08:59:51;105034.91;;;7.22;100.00
7309;BME280;3695;53.330;9.876;2023-02-20T09:02:20;105111.16;;;7.26;100.00
7309;BME280;3695;53.330;9.876;2023-02-20T09:04:49;105184.66;;;7.31;100.00
7309;BME280;3695;53.330;9.876;2023-02-20T09:07:16;105237.75;;;7.31;100.00
7309;BME280;3695;53.330;9.876;2023-02-20T09:09:42;105304.81;;;7.38;100.00
7309;BME280;3695;53.330;9.876;2023-02-20T09:12:08;105365.59;;;7.45;100.00
7309;BME280;3695;53.330;9.876;2023-02-20T09:14:37;105390.84;;;7.44;100.00
7309;BME280;3695;53.330;9.876;2023-02-20T09:17:03;105439.91;;;7.52;100.00
7309;BME280;3695;53.330;9.876;2023-02-20T09:19:30;105493.03;;;7.52;100.00
7309;BME280;3695;53.330;9.876;2023-02-20T09:21:56;105529.59;;;7.59;100.00
7309;BME280;3695;53.330;9.876;2023-02-20T09:24:23;105541.25;;;7.60;100.00
7309;BME280;3695;53.330;9.876;2023-02-20T09:26:52;105603.84;;;7.68;100.00
7309;BME280;3695;53.330;9.876;2023-02-20T09:29:18;105624.56;;;7.67;100.00
7309;BME280;3695;53.330;9.876;2023-02-20T09:31:46;105646.91;;;7.71;100.00
7309;BME280;3695;53.330;9.876;2023-02-20T09:34:12;105677.41;;;7.73;100.00
7309;BME280;3695;53.330;9.876;2023-02-20T09:36:39;105713.72;;;7.84;100.00
7309;BME280;3695;53.330;9.876;2023-02-20T09:39:05;105723.72;;;7.82;100.00
7309;BME280;3695;53.330;9.876;2023-02-20T09:41:40;105785.78;;;7.84;100.00
7309;BME280;3695;53.330;9.876;2023-02-20T09:44:14;105784.91;;;7.83;100.00
7309;BME280;3695;53.330;9.876;2023-02-20T09:46:44;105823.13;;;7.76;100.00
7309;BME280;3695;53.330;9.876;2023-02-20T09:49:16;105910.88;;;7.86;100.00
7309;BME280;3695;53.330;9.876;2023-02-20T09:51:48;105949.00;;;7.80;100.00
7309;BME280;3695;53.330;9.876;2023-02-20T09:54:20;106066.44;;;7.92;100.00
7309;BME280;3695;53.330;9.876;2023-02-20T09:56:52;106112.75;;;7.84;100.00
7309;BME280;3695;53.330;9.876;2023-02-20T09:59:21;106226.38;;;8.01;100.00
7309;BME280;3695;53.330;9.876;2023-02-20T10:01:52;106215.31;;;7.87;100.00
7309;BME280;3695;53.330;9.876;2023-02-20T10:04:25;106295.84;;;7.99;100.00
7309;BME280;3695;53.330;9.876;2023-02-20T10:07:01;106349.78;;;8.02;100.00
7309;BME280;3695;53.330;9.876;2023-02-20T10:09:30;106353.00;;;7.90;100.00
7309;BME280;3695;53.330;9.876;2023-02-20T10:12:06;106454.44;;;7.99;100.00
7309;BME280;3695;53.330;9.876;2023-02-20T10:15:02;106552.38;;;8.07;100.00
7309;BME280;3695;53.330;9.876;2023-02-20T10:17:39;106593.06;;;8.02;100.00
7309;BME280;3695;53.330;9.876;2023-02-20T10:20:11;106659.63;;;8.06;100.00
7309;BME280;3695;53.330;9.876;2023-02-20T10:22:48;106669.88;;;7.97;100.00
7309;BME280;3695;53.330;9.876;2023-02-20T10:25:23;106722.84;;;8.02;100.00
7309;BME280;3695;53.330;9.876;2023-02-20T10:27:52;106735.41;;;8.05;100.00
7309;BME280;3695;53.330;9.876;2023-02-20T10:30:24;106771.38;;;8.07;100.00
7309;BME280;3695;53.330;9.876;2023-02-20T10:32:56;106785.78;;;8.07;100.00
7309;BME280;3695;53.330;9.876;2023-02-20T10:35:31;106811.53;;;8.17;100.00
7309;BME280;3695;53.330;9.876;2023-02-20T10:38:02;106780.03;;;8.16;100.00
7309;BME280;3695;53.330;9.876;2023-02-20T10:40:34;106780.78;;;8.20;100.00
7309;BME280;3695;53.330;9.876;2023-02-20T10:43:07;106777.91;;;8.25;100.00
7309;BME280;3695;53.330;9.876;2023-02-20T10:45:40;106759.94;;;8.24;100.00
7309;BME280;3695;53.330;9.876;2023-02-20T10:48:10;106769.69;;;8.28;100.00
7309;BME280;3695;53.330;9.876;2023-02-20T10:50:44;106746.84;;;8.36;100.00
7309;BME280;3695;53.330;9.876;2023-02-20T10:53:20;106730.38;;;8.42;100.00
7309;BME280;3695;53.330;9.876;2023-02-20T10:55:55;106670.94;;;8.41;100.00
7309;BME280;3695;53.330;9.876;2023-02-20T10:58:27;106623.25;;;8.38;100.00
7309;BME280;3695;53.330;9.876;2023-02-20T11:00:58;106616.91;;;8.39;100.00
7309;BME280;3695;53.330;9.876;2023-02-20T11:03:29;106612.94;;;8.48;100.00
7309;BME280;3695;53.330;9.876;2023-02-20T11:06:01;106586.00;;;8.45;100.00
7309;BME280;3695;53.330;9.876;2023-02-20T11:08:28;106554.28;;;8.48;100.00
7309;BME280;3695;53.330;9.876;2023-02-20T11:10:57;106536.16;;;8.50;100.00
7309;BME280;3695;53.330;9.876;2023-02-20T11:13:25;106497.19;;;8.56;100.00
7309;BME280;3695;53.330;9.876;2023-02-20T11:15:53;106482.72;;;8.57;100.00
7309;BME280;3695;53.330;9.876;2023-02-20T11:18:23;106468.09;;;8.61;100.00
7309;BME280;3695;53.330;9.876;2023-02-20T11:20:53;106478.38;;;8.73;100.00
7309;BME280;3695;53.330;9.876;2023-02-20T11:23:43;106442.38;;;8.71;100.00
7309;BME280;3695;53.330;9.876;2023-02-20T11:26:29;106418.97;;;8.70;100.00
7309;BME280;3695;53.330;9.876;2023-02-20T11:29:03;106409.03;;;8.71;100.00
7309;BME280;3695;53.330;9.876;2023-02-20T11:31:33;106395.56;;;8.69;100.00
7309;BME280;3695;53.330;9.876;2023-02-20T11:34:01;106389.47;;;8.84;100.00
7309;BME280;3695;53.330;9.876;2023-02-20T11:36:33;106357.06;;;8.83;100.00
7309;BME280;3695;53.330;9.876;2023-02-20T11:39:16;106335.47;;;8.81;100.00
7309;BME280;3695;53.330;9.876;2023-02-20T11:41:44;106304.31;;;8.92;100.00
7309;BME280;3695;53.330;9.876;2023-02-20T11:44:29;106252.72;;;8.95;100.00
7309;BME280;3695;53.330;9.876;2023-02-20T11:47:25;106234.72;;;8.94;100.00
7309;BME280;3695;53.330;9.876;2023-02-20T11:50:09;106226.03;;;9.06;100.00
7309;BME280;3695;53.330;9.876;2023-02-20T11:52:36;106173.13;;;8.99;100.00
7309;BME280;3695;53.330;9.876;2023-02-20T11:55:18;106086.34;;;9.02;100.00
7309;BME280;3695;53.330;9.876;2023-02-20T11:57:46;106009.44;;;9.06;100.00
7309;BME280;3695;53.330;9.876;2023-02-20T12:00:15;105955.91;;;9.11;100.00
7309;BME280;3695;53.330;9.876;2023-02-20T12:02:49;105882.78;;;9.11;100.00
7309;BME280;3695;53.330;9.876;2023-02-20T12:05:17;105815.53;;;9.19;100.00
7309;BME280;3695;53.330;9.876;2023-02-20T12:07:53;105726.44;;;9.14;100.00
7309;BME280;3695;53.330;9.876;2023-02-20T12:10:35;105628.88;;;9.16;100.00
7309;BME280;3695;53.330;9.876;2023-02-20T12:13:04;105497.78;;;9.20;100.00
7309;BME280;3695;53.330;9.876;2023-02-20T12:15:30;105402.72;;;9.25;100.00
7309;BME280;3695;53.330;9.876;2023-02-20T12:18:17;105332.81;;;9.17;100.00
7309;BME280;3695;53.330;9.876;2023-02-20T12:20:52;105182.09;;;9.30;100.00
7309;BME280;3695;53.330;9.876;2023-02-20T12:23:26;105131.63;;;9.29;100.00
7309;BME280;3695;53.330;9.876;2023-02-20T12:26:10;105038.03;;;9.38;100.00
7309;BME280;3695;53.330;9.876;2023-02-20T12:28:49;104959.84;;;9.33;100.00
7309;BME280;3695;53.330;9.876;2023-02-20T12:31:30;104890.09;;;9.37;100.00
7309;BME280;3695;53.330;9.876;2023-02-20T12:34:11;104832.34;;;9.36;100.00
7309;BME280;3695;53.330;9.876;2023-02-20T12:36:47;104772.88;;;9.35;100.00
7309;BME280;3695;53.330;9.876;2023-02-20T12:39:26;104746.44;;;9.38;100.00
7309;BME280;3695;53.330;9.876;2023-02-20T12:42:13;104686.63;;;9.41;100.00
7309;BME280;3695;53.330;9.876;2023-02-20T12:47:39;104602.69;;;9.41;100.00
7309;BME280;3695;53.330;9.876;2023-02-20T12:50:29;104548.09;;;9.48;100.00
7309;BME280;3695;53.330;9.876;2023-02-20T12:53:09;104535.75;;;9.43;100.00
7309;BME280;3695;53.330;9.876;2023-02-20T12:55:44;104522.94;;;9.45;100.00
7309;BME280;3695;53.330;9.876;2023-02-20T12:58:30;104496.09;;;9.42;100.00
7309;BME280;3695;53.330;9.876;2023-02-20T13:00:59;104471.72;;;9.42;100.00
7309;BME280;3695;53.330;9.876;2023-02-20T13:03:37;104454.28;;;9.46;100.00
7309;BME280;3695;53.330;9.876;2023-02-20T13:06:06;104439.25;;;9.42;100.00
7309;BME280;3695;53.330;9.876;2023-02-20T13:08:36;104428.41;;;9.42;100.00
7309;BME280;3695;53.330;9.876;2023-02-20T13:11:10;104414.88;;;9.42;100.00
7309;BME280;3695;53.330;9.876;2023-02-20T13:16:30;104386.34;;;9.50;100.00
7309;BME280;3695;53.330;9.876;2023-02-20T13:19:03;104347.44;;;9.51;100.00
7309;BME280;3695;53.330;9.876;2023-02-20T13:21:31;104348.44;;;9.50;100.00
7309;BME280;3695;53.330;9.876;2023-02-20T13:24:26;104304.59;;;9.56;100.00
7309;BME280;3695;53.330;9.876;2023-02-20T13:26:53;104271.38;;;9.54;100.00
7309;BME280;3695;53.330;9.876;2023-02-20T13:29:23;104263.50;;;9.51;100.00
7309;BME280;3695;53.330;9.876;2023-02-20T13:31:52;104280.72;;;9.50;100.00
7309;BME280;3695;53.330;9.876;2023-02-20T13:34:33;104274.78;;;9.44;100.00
7309;BME280;3695;53.330;9.876;2023-02-20T13:37:00;104272.59;;;9.50;100.00